sensor_id;sensor_type;location;lat;lon;timestamp;P1;durP1;ratioP1;P2;durP2;ratioP2
51146;SDS011;37207;53.060;18.726;2023-04-02T00:08:55;3.60;;;2.90;;
51146;SDS011;37207;53.060;18.726;2023-04-02T00:11:29;2.70;;;2.50;;
51146;SDS011;37207;53.060;18.726;2023-04-02T00:14:00;2.90;;;2.70;;
51146;SDS011;37207;53.060;18.726;2023-04-02T00:16:27;2.70;;;2.50;;
51146;SDS011;37207;53.060;18.726;2023-04-02T00:18:54;3.60;;;2.40;;
51146;SDS011;37207;53.060;18.726;2023-04-02T00:21:29;3.10;;;2.90;;
51146;SDS011;37207;53.060;18.726;2023-04-02T00:23:59;3.10;;;2.90;;
51146;SDS011;37207;53.060;18.726;2023-04-02T00:26:35;2.70;;;2.50;;
51146;SDS011;37207;53.060;18.726;2023-04-02T00:31:35;2.50;;;2.30;;
51146;SDS011;37207;53.060;18.726;2023-04-02T00:34:15;2.00;;;1.50;;
51146;SDS011;37207;53.060;18.726;2023-04-02T00:36:46;2.70;;;2.50;;
51146;SDS011;37207;53.060;18.726;2023-04-02T00:39:16;3.90;;;3.60;;
51146;SDS011;37207;53.060;18.726;2023-04-02T00:41:45;3.00;;;2.80;;
51146;SDS011;37207;53.060;18.726;2023-04-02T00:44:12;3.90;;;3.60;;
51146;SDS011;37207;53.060;18.726;2023-04-02T00:46:43;2.40;;;2.10;;
51146;SDS011;37207;53.060;18.726;2023-04-02T00:49:17;3.20;;;3.00;;
51146;SDS011;37207;53.060;18.726;2023-04-02T00:51:49;3.50;;;3.30;;
51146;SDS011;37207;53.060;18.726;2023-04-02T00:54:19;3.50;;;3.20;;
51146;SDS011;37207;53.060;18.726;2023-04-02T00:56:49;4.00;;;3.30;;
51146;SDS011;37207;53.060;18.726;2023-04-02T00:59:29;2.50;;;2.30;;
51146;SDS011;37207;53.060;18.726;2023-04-02T01:04:39;3.90;;;3.60;;
51146;SDS011;37207;53.060;18.726;2023-04-02T01:07:07;3.50;;;3.20;;
51146;SDS011;37207;53.060;18.726;2023-04-02T01:12:30;3.40;;;3.20;;
51146;SDS011;37207;53.060;18.726;2023-04-02T01:15:13;3.30;;;3.00;;
51146;SDS011;37207;53.060;18.726;2023-04-02T01:20:33;3.40;;;2.80;;
51146;SDS011;37207;53.060;18.726;2023-04-02T01:26:07;3.90;;;3.50;;
51146;SDS011;37207;53.060;18.726;2023-04-02T01:31:46;3.60;;;3.30;;
51146;SDS011;37207;53.060;18.726;2023-04-02T01:34:16;3.70;;;3.40;;
51146;SDS011;37207;53.060;18.726;2023-04-02T01:42:04;6.30;;;4.00;;
51146;SDS011;37207;53.060;18.726;2023-04-02T01:44:45;4.70;;;4.40;;
51146;SDS011;37207;53.060;18.726;2023-04-02T01:47:15;4.30;;;3.90;;
51146;SDS011;37207;53.060;18.726;2023-04-02T01:49:44;4.60;;;4.20;;
51146;SDS011;37207;53.060;18.726;2023-04-02T01:52:15;4.50;;;4.20;;
51146;SDS011;37207;53.060;18.726;2023-04-02T01:54:44;4.20;;;3.80;;
51146;SDS011;37207;53.060;18.726;2023-04-02T01:57:12;3.90;;;3.00;;
51146;SDS011;37207;53.060;18.726;2023-04-02T01:59:38;4.50;;;4.20;;
51146;SDS011;37207;53.060;18.726;2023-04-02T02:02:06;5.80;;;4.40;;
51146;SDS011;37207;53.060;18.726;2023-04-02T02:04:36;4.60;;;4.20;;
51146;SDS011;37207;53.060;18.726;2023-04-02T02:07:05;4.60;;;4.10;;
51146;SDS011;37207;53.060;18.726;2023-04-02T02:09:39;5.60;;;5.20;;
51146;SDS011;37207;53.060;18.726;2023-04-02T02:12:08;5.30;;;4.80;;
51146;SDS011;37207;53.060;18.726;2023-04-02T02:14:38;3.90;;;3.60;;
51146;SDS011;37207;53.060;18.726;2023-04-02T02:17:09;4.90;;;4.60;;
51146;SDS011;37207;53.060;18.726;2023-04-02T02:19:41;4.80;;;4.40;;
51146;SDS011;37207;53.060;18.726;2023-04-02T02:22:29;7.40;;;4.50;;
51146;SDS011;37207;53.060;18.726;2023-04-02T02:25:00;3.50;;;3.20;;
51146;SDS011;37207;53.060;18.726;2023-04-02T02:27:41;4.60;;;4.30;;
51146;SDS011;37207;53.060;18.726;2023-04-02T02:32:44;4.50;;;3.40;;
51146;SDS011;37207;53.060;18.726;2023-04-02T02:35:17;3.60;;;3.30;;
51146;SDS011;37207;53.060;18.726;2023-04-02T02:38:40;3.80;;;3.50;;
51146;SDS011;37207;53.060;18.726;2023-04-02T02:41:25;4.40;;;4.20;;
51146;SDS011;37207;53.060;18.726;2023-04-02T02:44:03;4.90;;;4.60;;
51146;SDS011;37207;53.060;18.726;2023-04-02T02:46:34;3.20;;;3.00;;
51146;SDS011;37207;53.060;18.726;2023-04-02T02:49:05;7.40;;;4.30;;
51146;SDS011;37207;53.060;18.726;2023-04-02T02:51:38;5.30;;;4.90;;
51146;SDS011;37207;53.060;18.726;2023-04-02T02:54:10;4.70;;;4.40;;
51146;SDS011;37207;53.060;18.726;2023-04-02T02:56:39;5.20;;;4.90;;
51146;SDS011;37207;53.060;18.726;2023-04-02T02:59:10;4.70;;;4.40;;
51146;SDS011;37207;53.060;18.726;2023-04-02T03:01:41;4.10;;;3.80;;
51146;SDS011;37207;53.060;18.726;2023-04-02T03:04:08;4.50;;;4.20;;
51146;SDS011;37207;53.060;18.726;2023-04-02T03:06:35;4.90;;;4.50;;
51146;SDS011;37207;53.060;18.726;2023-04-02T03:11:54;5.10;;;4.20;;
51146;SDS011;37207;53.060;18.726;2023-04-02T03:17:19;3.60;;;3.30;;
51146;SDS011;37207;53.060;18.726;2023-04-02T03:20:09;4.80;;;4.40;;
51146;SDS011;37207;53.060;18.726;2023-04-02T03:22:57;4.30;;;4.00;;
51146;SDS011;37207;53.060;18.726;2023-04-02T03:25:40;4.30;;;4.00;;
51146;SDS011;37207;53.060;18.726;2023-04-02T03:28:29;3.90;;;3.50;;
51146;SDS011;37207;53.060;18.726;2023-04-02T03:31:08;12.80;;;4.30;;
51146;SDS011;37207;53.060;18.726;2023-04-02T03:33:45;4.90;;;4.50;;
51146;SDS011;37207;53.060;18.726;2023-04-02T03:36:19;4.10;;;3.80;;
51146;SDS011;37207;53.060;18.726;2023-04-02T03:41:48;4.60;;;4.00;;
51146;SDS011;37207;53.060;18.726;2023-04-02T03:44:23;4.30;;;4.00;;
51146;SDS011;37207;53.060;18.726;2023-04-02T03:46:55;3.90;;;3.60;;
51146;SDS011;37207;53.060;18.726;2023-04-02T03:49:28;4.90;;;3.70;;
51146;SDS011;37207;53.060;18.726;2023-04-02T03:52:04;4.40;;;4.10;;
51146;SDS011;37207;53.060;18.726;2023-04-02T03:54:36;4.30;;;4.10;;
51146;SDS011;37207;53.060;18.726;2023-04-02T03:57:04;4.90;;;4.60;;
51146;SDS011;37207;53.060;18.726;2023-04-02T03:59:46;4.90;;;4.50;;
51146;SDS011;37207;53.060;18.726;2023-04-02T04:05:03;4.40;;;3.60;;
51146;SDS011;37207;53.060;18.726;2023-04-02T04:10:05;4.90;;;4.50;;
51146;SDS011;37207;53.060;18.726;2023-04-02T04:12:39;4.80;;;4.30;;
51146;SDS011;37207;53.060;18.726;2023-04-02T04:15:16;6.80;;;4.00;;
51146;SDS011;37207;53.060;18.726;2023-04-02T04:20:50;5.40;;;5.00;;
51146;SDS011;37207;53.060;18.726;2023-04-02T04:23:37;5.50;;;5.00;;
51146;SDS011;37207;53.060;18.726;2023-04-02T04:26:17;5.60;;;5.20;;
51146;SDS011;37207;53.060;18.726;2023-04-02T04:28:55;6.10;;;5.70;;
51146;SDS011;37207;53.060;18.726;2023-04-02T04:31:49;6.30;;;5.80;;
51146;SDS011;37207;53.060;18.726;2023-04-02T04:34:23;6.10;;;5.00;;
51146;SDS011;37207;53.060;18.726;2023-04-02T04:36:56;7.80;;;5.00;;
51146;SDS011;37207;53.060;18.726;2023-04-02T04:42:34;6.40;;;6.00;;
51146;SDS011;37207;53.060;18.726;2023-04-02T04:47:43;5.80;;;5.30;;
51146;SDS011;37207;53.060;18.726;2023-04-02T04:52:55;5.20;;;4.80;;
51146;SDS011;37207;53.060;18.726;2023-04-02T04:55:26;5.00;;;4.70;;
51146;SDS011;37207;53.060;18.726;2023-04-02T04:57:58;4.40;;;4.00;;
51146;SDS011;37207;53.060;18.726;2023-04-02T05:05:54;5.00;;;4.70;;
51146;SDS011;37207;53.060;18.726;2023-04-02T05:08:29;4.40;;;3.90;;
51146;SDS011;37207;53.060;18.726;2023-04-02T05:11:02;4.60;;;4.40;;
51146;SDS011;37207;53.060;18.726;2023-04-02T05:13:35;3.50;;;3.20;;
51146;SDS011;37207;53.060;18.726;2023-04-02T05:16:17;5.00;;;4.20;;
51146;SDS011;37207;53.060;18.726;2023-04-02T05:18:58;4.10;;;3.80;;
51146;SDS011;37207;53.060;18.726;2023-04-02T05:24:54;5.20;;;4.90;;
51146;SDS011;37207;53.060;18.726;2023-04-02T05:32:52;4.60;;;4.30;;
51146;SDS011;37207;53.060;18.726;2023-04-02T05:35:27;4.80;;;4.50;;
51146;SDS011;37207;53.060;18.726;2023-04-02T05:37:57;5.50;;;4.00;;
51146;SDS011;37207;53.060;18.726;2023-04-02T05:40:29;4.30;;;4.00;;
51146;SDS011;37207;53.060;18.726;2023-04-02T05:43:01;3.30;;;3.00;;
51146;SDS011;37207;53.060;18.726;2023-04-02T05:45:36;4.90;;;4.10;;
51146;SDS011;37207;53.060;18.726;2023-04-02T05:48:16;4.70;;;4.30;;
51146;SDS011;37207;53.060;18.726;2023-04-02T05:50:46;4.00;;;3.80;;
51146;SDS011;37207;53.060;18.726;2023-04-02T05:55:58;4.70;;;4.30;;
51146;SDS011;37207;53.060;18.726;2023-04-02T05:58:43;5.40;;;4.70;;
51146;SDS011;37207;53.060;18.726;2023-04-02T06:04:34;7.20;;;6.70;;
51146;SDS011;37207;53.060;18.726;2023-04-02T06:07:10;5.50;;;4.90;;
51146;SDS011;37207;53.060;18.726;2023-04-02T06:09:47;5.60;;;5.00;;
51146;SDS011;37207;53.060;18.726;2023-04-02T06:14:48;5.00;;;4.70;;
51146;SDS011;37207;53.060;18.726;2023-04-02T06:17:15;5.50;;;4.80;;
51146;SDS011;37207;53.060;18.726;2023-04-02T06:19:43;4.50;;;4.20;;
51146;SDS011;37207;53.060;18.726;2023-04-02T06:24:46;5.20;;;4.70;;
51146;SDS011;37207;53.060;18.726;2023-04-02T06:27:23;4.70;;;4.30;;
51146;SDS011;37207;53.060;18.726;2023-04-02T06:29:52;5.70;;;3.70;;
51146;SDS011;37207;53.060;18.726;2023-04-02T06:32:26;3.90;;;3.60;;
51146;SDS011;37207;53.060;18.726;2023-04-02T06:34:52;4.60;;;4.30;;
51146;SDS011;37207;53.060;18.726;2023-04-02T06:37:30;5.60;;;5.20;;
51146;SDS011;37207;53.060;18.726;2023-04-02T06:40:34;4.80;;;3.80;;
51146;SDS011;37207;53.060;18.726;2023-04-02T06:46:38;4.50;;;4.10;;
51146;SDS011;37207;53.060;18.726;2023-04-02T06:49:27;4.20;;;3.50;;
51146;SDS011;37207;53.060;18.726;2023-04-02T06:52:13;4.80;;;3.30;;
51146;SDS011;37207;53.060;18.726;2023-04-02T06:54:46;5.90;;;5.40;;
51146;SDS011;37207;53.060;18.726;2023-04-02T06:57:14;3.60;;;3.30;;
51146;SDS011;37207;53.060;18.726;2023-04-02T06:59:41;4.00;;;3.50;;
51146;SDS011;37207;53.060;18.726;2023-04-02T07:02:18;4.80;;;3.80;;
51146;SDS011;37207;53.060;18.726;2023-04-02T07:05:05;4.00;;;3.70;;
51146;SDS011;37207;53.060;18.726;2023-04-02T07:07:39;4.50;;;3.50;;
51146;SDS011;37207;53.060;18.726;2023-04-02T07:10:08;3.20;;;2.90;;
51146;SDS011;37207;53.060;18.726;2023-04-02T07:12:35;4.30;;;3.90;;
51146;SDS011;37207;53.060;18.726;2023-04-02T07:15:01;4.60;;;4.00;;
51146;SDS011;37207;53.060;18.726;2023-04-02T07:17:27;5.70;;;3.40;;
51146;SDS011;37207;53.060;18.726;2023-04-02T07:19:52;4.20;;;3.90;;
51146;SDS011;37207;53.060;18.726;2023-04-02T07:22:19;4.00;;;3.60;;
51146;SDS011;37207;53.060;18.726;2023-04-02T07:24:50;5.70;;;4.60;;
51146;SDS011;37207;53.060;18.726;2023-04-02T07:27:16;3.90;;;3.60;;
51146;SDS011;37207;53.060;18.726;2023-04-02T07:29:42;2.80;;;2.60;;
51146;SDS011;37207;53.060;18.726;2023-04-02T07:32:09;4.70;;;4.20;;
51146;SDS011;37207;53.060;18.726;2023-04-02T07:34:38;6.00;;;5.00;;
51146;SDS011;37207;53.060;18.726;2023-04-02T07:37:06;4.20;;;3.80;;
51146;SDS011;37207;53.060;18.726;2023-04-02T07:39:32;4.50;;;4.10;;
51146;SDS011;37207;53.060;18.726;2023-04-02T07:41:59;4.60;;;4.20;;
51146;SDS011;37207;53.060;18.726;2023-04-02T07:44:26;3.40;;;2.40;;
51146;SDS011;37207;53.060;18.726;2023-04-02T07:46:53;6.30;;;3.90;;
51146;SDS011;37207;53.060;18.726;2023-04-02T07:49:19;6.10;;;3.80;;
51146;SDS011;37207;53.060;18.726;2023-04-02T07:51:46;5.00;;;4.30;;
51146;SDS011;37207;53.060;18.726;2023-04-02T07:54:12;5.80;;;4.80;;
51146;SDS011;37207;53.060;18.726;2023-04-02T07:56:38;6.00;;;5.40;;
51146;SDS011;37207;53.060;18.726;2023-04-02T07:59:04;5.40;;;4.60;;
51146;SDS011;37207;53.060;18.726;2023-04-02T08:01:30;6.90;;;6.30;;
51146;SDS011;37207;53.060;18.726;2023-04-02T08:04:00;5.20;;;4.70;;
51146;SDS011;37207;53.060;18.726;2023-04-02T08:06:28;5.00;;;3.30;;
51146;SDS011;37207;53.060;18.726;2023-04-02T08:08:55;4.50;;;4.20;;
51146;SDS011;37207;53.060;18.726;2023-04-02T08:11:22;5.50;;;3.30;;
51146;SDS011;37207;53.060;18.726;2023-04-02T08:13:48;3.80;;;2.90;;
51146;SDS011;37207;53.060;18.726;2023-04-02T08:16:14;3.40;;;2.60;;
51146;SDS011;37207;53.060;18.726;2023-04-02T08:18:41;4.00;;;3.50;;
51146;SDS011;37207;53.060;18.726;2023-04-02T08:21:07;4.00;;;2.60;;
51146;SDS011;37207;53.060;18.726;2023-04-02T08:23:35;5.00;;;4.50;;
51146;SDS011;37207;53.060;18.726;2023-04-02T08:26:02;10.30;;;4.30;;
51146;SDS011;37207;53.060;18.726;2023-04-02T08:28:28;4.50;;;4.00;;
51146;SDS011;37207;53.060;18.726;2023-04-02T08:30:54;4.60;;;4.20;;
51146;SDS011;37207;53.060;18.726;2023-04-02T08:33:20;4.20;;;3.80;;
51146;SDS011;37207;53.060;18.726;2023-04-02T08:35:46;4.40;;;4.00;;
51146;SDS011;37207;53.060;18.726;2023-04-02T08:38:13;4.40;;;3.70;;
51146;SDS011;37207;53.060;18.726;2023-04-02T08:40:44;4.30;;;3.90;;
51146;SDS011;37207;53.060;18.726;2023-04-02T08:43:17;4.00;;;2.60;;
51146;SDS011;37207;53.060;18.726;2023-04-02T08:46:05;4.20;;;3.80;;
51146;SDS011;37207;53.060;18.726;2023-04-02T08:48:55;3.90;;;3.40;;
51146;SDS011;37207;53.060;18.726;2023-04-02T08:51:26;5.50;;;3.70;;
51146;SDS011;37207;53.060;18.726;2023-04-02T08:53:58;5.50;;;3.90;;
51146;SDS011;37207;53.060;18.726;2023-04-02T08:56:29;6.10;;;4.80;;
51146;SDS011;37207;53.060;18.726;2023-04-02T08:59:02;4.40;;;4.00;;
51146;SDS011;37207;53.060;18.726;2023-04-02T09:04:26;6.10;;;4.80;;
51146;SDS011;37207;53.060;18.726;2023-04-02T09:06:54;6.70;;;4.20;;
51146;SDS011;37207;53.060;18.726;2023-04-02T09:09:21;5.70;;;2.80;;
51146;SDS011;37207;53.060;18.726;2023-04-02T09:17:17;4.40;;;3.80;;
51146;SDS011;37207;53.060;18.726;2023-04-02T09:19:55;4.30;;;3.90;;
51146;SDS011;37207;53.060;18.726;2023-04-02T09:22:24;4.00;;;3.20;;
51146;SDS011;37207;53.060;18.726;2023-04-02T09:24:53;4.00;;;3.60;;
51146;SDS011;37207;53.060;18.726;2023-04-02T09:27:23;4.10;;;3.30;;
51146;SDS011;37207;53.060;18.726;2023-04-02T09:29:55;5.60;;;3.30;;
51146;SDS011;37207;53.060;18.726;2023-04-02T09:35:18;5.50;;;3.30;;
51146;SDS011;37207;53.060;18.726;2023-04-02T09:43:23;5.50;;;4.60;;
51146;SDS011;37207;53.060;18.726;2023-04-02T09:48:52;4.40;;;4.00;;
51146;SDS011;37207;53.060;18.726;2023-04-02T09:51:23;4.50;;;4.20;;
51146;SDS011;37207;53.060;18.726;2023-04-02T09:56:30;4.90;;;4.50;;
51146;SDS011;37207;53.060;18.726;2023-04-02T10:01:36;5.50;;;3.30;;
51146;SDS011;37207;53.060;18.726;2023-04-02T10:04:06;5.00;;;3.30;;
51146;SDS011;37207;53.060;18.726;2023-04-02T10:10:15;3.10;;;2.80;;
51146;SDS011;37207;53.060;18.726;2023-04-02T10:12:42;6.70;;;3.40;;
51146;SDS011;37207;53.060;18.726;2023-04-02T10:15:16;8.10;;;5.30;;
51146;SDS011;37207;53.060;18.726;2023-04-02T10:17:50;6.00;;;5.50;;
51146;SDS011;37207;53.060;18.726;2023-04-02T10:20:32;7.20;;;6.00;;
51146;SDS011;37207;53.060;18.726;2023-04-02T10:23:01;5.30;;;4.80;;
51146;SDS011;37207;53.060;18.726;2023-04-02T10:25:28;4.70;;;3.60;;
51146;SDS011;37207;53.060;18.726;2023-04-02T10:28:12;3.90;;;3.40;;
51146;SDS011;37207;53.060;18.726;2023-04-02T10:30:53;4.00;;;3.60;;
51146;SDS011;37207;53.060;18.726;2023-04-02T10:33:29;3.90;;;3.20;;
51146;SDS011;37207;53.060;18.726;2023-04-02T10:36:54;5.10;;;2.90;;
51146;SDS011;37207;53.060;18.726;2023-04-02T10:39:18;3.70;;;2.60;;
51146;SDS011;37207;53.060;18.726;2023-04-02T10:41:53;4.50;;;2.90;;
51146;SDS011;37207;53.060;18.726;2023-04-02T10:52:25;7.30;;;4.60;;
51146;SDS011;37207;53.060;18.726;2023-04-02T10:55:00;7.20;;;5.30;;
51146;SDS011;37207;53.060;18.726;2023-04-02T11:02:43;4.90;;;3.90;;
51146;SDS011;37207;53.060;18.726;2023-04-02T11:07:54;5.00;;;3.30;;
51146;SDS011;37207;53.060;18.726;2023-04-02T11:10:27;3.70;;;2.90;;
51146;SDS011;37207;53.060;18.726;2023-04-02T11:12:58;4.10;;;3.20;;
51146;SDS011;37207;53.060;18.726;2023-04-02T11:15:31;4.00;;;3.10;;
51146;SDS011;37207;53.060;18.726;2023-04-02T11:17:57;3.50;;;2.70;;
51146;SDS011;37207;53.060;18.726;2023-04-02T11:23:17;6.40;;;3.90;;
51146;SDS011;37207;53.060;18.726;2023-04-02T11:25:45;7.00;;;3.60;;
51146;SDS011;37207;53.060;18.726;2023-04-02T11:28:28;7.00;;;4.70;;
51146;SDS011;37207;53.060;18.726;2023-04-02T11:30:56;4.90;;;3.00;;
51146;SDS011;37207;53.060;18.726;2023-04-02T11:36:56;6.90;;;4.00;;
51146;SDS011;37207;53.060;18.726;2023-04-02T11:44:43;4.60;;;3.40;;
51146;SDS011;37207;53.060;18.726;2023-04-02T11:47:13;3.20;;;2.50;;
51146;SDS011;37207;53.060;18.726;2023-04-02T11:49:59;4.90;;;3.10;;
51146;SDS011;37207;53.060;18.726;2023-04-02T11:52:37;2.90;;;2.50;;
51146;SDS011;37207;53.060;18.726;2023-04-02T11:55:25;5.70;;;3.40;;
51146;SDS011;37207;53.060;18.726;2023-04-02T12:03:00;8.40;;;3.20;;
51146;SDS011;37207;53.060;18.726;2023-04-02T12:05:34;3.90;;;3.40;;
51146;SDS011;37207;53.060;18.726;2023-04-02T12:16:03;4.20;;;3.50;;
51146;SDS011;37207;53.060;18.726;2023-04-02T12:18:35;5.00;;;3.30;;
51146;SDS011;37207;53.060;18.726;2023-04-02T12:21:08;5.70;;;3.50;;
51146;SDS011;37207;53.060;18.726;2023-04-02T12:23:43;3.90;;;3.60;;
51146;SDS011;37207;53.060;18.726;2023-04-02T12:31:46;7.10;;;4.70;;
51146;SDS011;37207;53.060;18.726;2023-04-02T12:34:13;4.30;;;3.80;;
51146;SDS011;37207;53.060;18.726;2023-04-02T12:36:51;3.20;;;3.00;;
51146;SDS011;37207;53.060;18.726;2023-04-02T12:39:27;5.70;;;3.40;;
51146;SDS011;37207;53.060;18.726;2023-04-02T12:41:55;3.70;;;3.10;;
51146;SDS011;37207;53.060;18.726;2023-04-02T12:44:23;5.40;;;4.50;;
51146;SDS011;37207;53.060;18.726;2023-04-02T12:46:51;12.70;;;6.80;;
51146;SDS011;37207;53.060;18.726;2023-04-02T12:49:27;7.80;;;5.10;;
51146;SDS011;37207;53.060;18.726;2023-04-02T12:52:00;4.90;;;4.40;;
51146;SDS011;37207;53.060;18.726;2023-04-02T12:54:28;9.70;;;6.60;;
51146;SDS011;37207;53.060;18.726;2023-04-02T12:59:53;4.80;;;3.00;;
51146;SDS011;37207;53.060;18.726;2023-04-02T13:02:22;3.60;;;3.10;;
51146;SDS011;37207;53.060;18.726;2023-04-02T13:04:51;5.30;;;4.80;;
51146;SDS011;37207;53.060;18.726;2023-04-02T13:07:22;5.00;;;3.30;;
51146;SDS011;37207;53.060;18.726;2023-04-02T13:09:54;3.90;;;2.80;;
51146;SDS011;37207;53.060;18.726;2023-04-02T13:14:57;3.00;;;2.10;;
51146;SDS011;37207;53.060;18.726;2023-04-02T13:20:31;4.00;;;2.70;;
51146;SDS011;37207;53.060;18.726;2023-04-02T13:22:58;3.30;;;2.80;;
51146;SDS011;37207;53.060;18.726;2023-04-02T13:25:33;3.30;;;2.40;;
51146;SDS011;37207;53.060;18.726;2023-04-02T13:28:00;3.90;;;2.80;;
51146;SDS011;37207;53.060;18.726;2023-04-02T13:30:27;3.70;;;2.90;;
51146;SDS011;37207;53.060;18.726;2023-04-02T13:32:54;2.50;;;2.30;;
51146;SDS011;37207;53.060;18.726;2023-04-02T13:35:20;7.40;;;2.50;;
51146;SDS011;37207;53.060;18.726;2023-04-02T13:37:47;3.10;;;2.60;;
51146;SDS011;37207;53.060;18.726;2023-04-02T13:40:14;9.10;;;2.90;;
51146;SDS011;37207;53.060;18.726;2023-04-02T13:42:41;3.30;;;2.20;;
51146;SDS011;37207;53.060;18.726;2023-04-02T13:45:14;3.20;;;2.00;;
51146;SDS011;37207;53.060;18.726;2023-04-02T13:47:46;3.10;;;2.50;;
51146;SDS011;37207;53.060;18.726;2023-04-02T13:50:31;3.20;;;2.80;;
51146;SDS011;37207;53.060;18.726;2023-04-02T13:52:59;6.90;;;2.10;;
51146;SDS011;37207;53.060;18.726;2023-04-02T13:55:30;3.30;;;2.10;;
51146;SDS011;37207;53.060;18.726;2023-04-02T13:58:01;6.60;;;2.30;;
51146;SDS011;37207;53.060;18.726;2023-04-02T14:00:28;3.20;;;2.10;;
51146;SDS011;37207;53.060;18.726;2023-04-02T14:02:59;8.10;;;2.20;;
51146;SDS011;37207;53.060;18.726;2023-04-02T14:05:31;3.60;;;2.40;;
51146;SDS011;37207;53.060;18.726;2023-04-02T14:08:10;2.90;;;2.00;;
51146;SDS011;37207;53.060;18.726;2023-04-02T14:11:07;4.50;;;2.20;;
51146;SDS011;37207;53.060;18.726;2023-04-02T14:16:41;7.00;;;3.60;;
51146;SDS011;37207;53.060;18.726;2023-04-02T14:27:34;3.80;;;3.10;;
51146;SDS011;37207;53.060;18.726;2023-04-02T14:32:55;4.60;;;4.00;;
51146;SDS011;37207;53.060;18.726;2023-04-02T14:35:48;4.00;;;2.80;;
51146;SDS011;37207;53.060;18.726;2023-04-02T14:43:25;3.90;;;2.10;;
51146;SDS011;37207;53.060;18.726;2023-04-02T14:45:57;6.20;;;2.20;;
51146;SDS011;37207;53.060;18.726;2023-04-02T14:54:03;4.40;;;2.30;;
51146;SDS011;37207;53.060;18.726;2023-04-02T14:57:16;3.10;;;1.80;;
51146;SDS011;37207;53.060;18.726;2023-04-02T15:02:39;4.50;;;2.00;;
51146;SDS011;37207;53.060;18.726;2023-04-02T15:13:20;3.60;;;2.10;;
51146;SDS011;37207;53.060;18.726;2023-04-02T15:15:53;4.30;;;2.50;;
51146;SDS011;37207;53.060;18.726;2023-04-02T15:18:23;4.30;;;2.90;;
51146;SDS011;37207;53.060;18.726;2023-04-02T15:23:52;8.30;;;2.60;;
51146;SDS011;37207;53.060;18.726;2023-04-02T15:26:23;3.80;;;2.00;;
51146;SDS011;37207;53.060;18.726;2023-04-02T15:31:50;4.00;;;1.90;;
51146;SDS011;37207;53.060;18.726;2023-04-02T15:34:41;7.70;;;3.50;;
51146;SDS011;37207;53.060;18.726;2023-04-02T15:37:22;3.60;;;2.40;;
51146;SDS011;37207;53.060;18.726;2023-04-02T15:46:01;3.00;;;2.40;;
51146;SDS011;37207;53.060;18.726;2023-04-02T15:48:37;2.90;;;2.50;;
51146;SDS011;37207;53.060;18.726;2023-04-02T15:53:51;3.80;;;2.40;;
51146;SDS011;37207;53.060;18.726;2023-04-02T15:56:46;4.80;;;3.10;;
51146;SDS011;37207;53.060;18.726;2023-04-02T16:10:33;4.90;;;2.70;;
51146;SDS011;37207;53.060;18.726;2023-04-02T16:13:00;3.40;;;2.00;;
51146;SDS011;37207;53.060;18.726;2023-04-02T16:15:41;2.00;;;0.80;;
51146;SDS011;37207;53.060;18.726;2023-04-02T16:18:14;3.80;;;2.40;;
51146;SDS011;37207;53.060;18.726;2023-04-02T16:20:51;3.30;;;2.20;;
51146;SDS011;37207;53.060;18.726;2023-04-02T16:23:19;4.30;;;2.60;;
51146;SDS011;37207;53.060;18.726;2023-04-02T16:26:00;3.60;;;2.20;;
51146;SDS011;37207;53.060;18.726;2023-04-02T16:31:20;9.60;;;4.60;;
51146;SDS011;37207;53.060;18.726;2023-04-02T16:36:46;7.40;;;3.00;;
51146;SDS011;37207;53.060;18.726;2023-04-02T16:39:32;4.20;;;1.90;;
51146;SDS011;37207;53.060;18.726;2023-04-02T16:53:21;7.50;;;2.60;;
51146;SDS011;37207;53.060;18.726;2023-04-02T16:56:05;7.20;;;3.50;;
51146;SDS011;37207;53.060;18.726;2023-04-02T16:58:46;6.60;;;3.60;;
51146;SDS011;37207;53.060;18.726;2023-04-02T17:04:39;6.40;;;3.10;;
51146;SDS011;37207;53.060;18.726;2023-04-02T17:12:59;3.60;;;2.50;;
51146;SDS011;37207;53.060;18.726;2023-04-02T17:15:59;2.80;;;1.00;;
51146;SDS011;37207;53.060;18.726;2023-04-02T17:18:29;12.40;;;3.70;;
51146;SDS011;37207;53.060;18.726;2023-04-02T17:20:59;10.30;;;6.40;;
51146;SDS011;37207;53.060;18.726;2023-04-02T17:23:30;8.50;;;2.60;;
51146;SDS011;37207;53.060;18.726;2023-04-02T17:28:31;5.70;;;1.40;;
51146;SDS011;37207;53.060;18.726;2023-04-02T17:31:21;6.60;;;1.70;;
51146;SDS011;37207;53.060;18.726;2023-04-02T17:33:48;7.30;;;1.70;;
51146;SDS011;37207;53.060;18.726;2023-04-02T17:38:58;4.70;;;1.10;;
51146;SDS011;37207;53.060;18.726;2023-04-02T17:41:37;4.00;;;1.60;;
51146;SDS011;37207;53.060;18.726;2023-04-02T17:44:26;3.20;;;1.40;;
51146;SDS011;37207;53.060;18.726;2023-04-02T18:06:02;2.60;;;1.30;;
51146;SDS011;37207;53.060;18.726;2023-04-02T18:08:56;3.70;;;0.90;;
51146;SDS011;37207;53.060;18.726;2023-04-02T18:11:52;6.40;;;1.90;;
51146;SDS011;37207;53.060;18.726;2023-04-02T18:14:55;4.70;;;2.70;;
51146;SDS011;37207;53.060;18.726;2023-04-02T18:20:02;3.50;;;1.60;;
51146;SDS011;37207;53.060;18.726;2023-04-02T18:22:55;4.60;;;1.50;;
51146;SDS011;37207;53.060;18.726;2023-04-02T18:25:34;4.60;;;1.30;;
51146;SDS011;37207;53.060;18.726;2023-04-02T18:31:00;9.30;;;1.30;;
51146;SDS011;37207;53.060;18.726;2023-04-02T18:39:39;2.40;;;1.50;;
51146;SDS011;37207;53.060;18.726;2023-04-02T18:45:21;5.20;;;1.50;;
51146;SDS011;37207;53.060;18.726;2023-04-02T18:48:20;3.40;;;1.70;;
51146;SDS011;37207;53.060;18.726;2023-04-02T18:51:15;6.20;;;1.60;;
51146;SDS011;37207;53.060;18.726;2023-04-02T18:53:47;7.60;;;1.50;;
51146;SDS011;37207;53.060;18.726;2023-04-02T18:56:18;5.90;;;1.70;;
51146;SDS011;37207;53.060;18.726;2023-04-02T19:01:19;4.40;;;1.40;;
51146;SDS011;37207;53.060;18.726;2023-04-02T19:03:53;2.70;;;1.00;;
51146;SDS011;37207;53.060;18.726;2023-04-02T19:06:28;3.20;;;1.40;;
51146;SDS011;37207;53.060;18.726;2023-04-02T19:09:20;5.20;;;1.50;;
51146;SDS011;37207;53.060;18.726;2023-04-02T19:11:51;5.30;;;2.10;;
51146;SDS011;37207;53.060;18.726;2023-04-02T19:14:18;10.00;;;1.70;;
51146;SDS011;37207;53.060;18.726;2023-04-02T19:16:56;7.40;;;2.20;;
51146;SDS011;37207;53.060;18.726;2023-04-02T19:19:45;3.80;;;1.90;;
51146;SDS011;37207;53.060;18.726;2023-04-02T19:22:32;2.70;;;1.40;;
51146;SDS011;37207;53.060;18.726;2023-04-02T19:27:57;4.30;;;1.40;;
51146;SDS011;37207;53.060;18.726;2023-04-02T19:41:18;6.00;;;2.10;;
51146;SDS011;37207;53.060;18.726;2023-04-02T19:43:54;6.80;;;2.30;;
51146;SDS011;37207;53.060;18.726;2023-04-02T19:46:21;10.90;;;4.80;;
51146;SDS011;37207;53.060;18.726;2023-04-02T19:48:58;4.30;;;1.70;;
51146;SDS011;37207;53.060;18.726;2023-04-02T19:51:29;5.80;;;1.80;;
51146;SDS011;37207;53.060;18.726;2023-04-02T19:53:55;5.20;;;1.90;;
51146;SDS011;37207;53.060;18.726;2023-04-02T19:56:21;4.10;;;1.20;;
51146;SDS011;37207;53.060;18.726;2023-04-02T19:58:47;4.90;;;1.90;;
51146;SDS011;37207;53.060;18.726;2023-04-02T20:01:13;3.60;;;1.70;;
51146;SDS011;37207;53.060;18.726;2023-04-02T20:03:39;5.30;;;1.60;;
51146;SDS011;37207;53.060;18.726;2023-04-02T20:06:05;8.80;;;2.10;;
51146;SDS011;37207;53.060;18.726;2023-04-02T20:08:31;5.90;;;1.80;;
51146;SDS011;37207;53.060;18.726;2023-04-02T20:10:57;4.40;;;1.90;;
51146;SDS011;37207;53.060;18.726;2023-04-02T20:13:23;5.40;;;1.90;;
51146;SDS011;37207;53.060;18.726;2023-04-02T20:15:49;8.20;;;1.80;;
51146;SDS011;37207;53.060;18.726;2023-04-02T20:18:16;8.10;;;1.90;;
51146;SDS011;37207;53.060;18.726;2023-04-02T20:20:46;10.30;;;3.50;;
51146;SDS011;37207;53.060;18.726;2023-04-02T20:23:14;9.30;;;2.20;;